Mn Pelican — FMLR — position and weather

sailwx.info

Track history (hours):
 
Tides and Currents Weather Stations Pressure Air Temp Water Temp Dewpoint Dewpoint Depression Visibility Wind Speed Wind Dir Waves Ship Positions

Mn Pelican

Last reported at 2014-Jul-22 23:26 UTC. Time now 2014-Jul-23 07:28 UTC.
Position N 39°37' E 025°42'.

Length 155 m.

Type: Ship. MMSI: 228315700.

Date/timePositionNaut miles runAvg speedWind from/ knotsBaromVisibWave heightAir tempDewpointWater temp
2014-Jul-22 23:26N 39°37' E 025°42'1415.8
2014-Jul-22 22:33N 39°50' E 025°48'3314.4
2014-Jul-22 20:13N 40°10' E 026°23'1312.5
2014-Jul-22 19:10N 40°19' E 026°36'  
2014-Jul-19 12:34N 37°39' E 023°42'1514.8
2014-Jul-19 11:34N 37°53' E 023°36'4 4.2
2014-Jul-19 10:29N 37°57' E 023°36'0 0.0
2014-Jul-19 09:29N 37°57' E 023°36'0 0.0
2014-Jul-19 08:28N 37°57' E 023°36'0 0.0
2014-Jul-19 07:28N 37°57' E 023°36'0 0.0
2014-Jul-19 06:33N 37°57' E 023°36'0 0.0
2014-Jul-19 05:33N 37°57' E 023°36'0 0.0
2014-Jul-19 04:33N 37°57' E 023°36'0 0.0
2014-Jul-19 03:32N 37°57' E 023°36'0 0.0
2014-Jul-19 02:32N 37°57' E 023°36'0 0.0
2014-Jul-19 01:31N 37°57' E 023°36'0 0.0
2014-Jul-19 00:31N 37°57' E 023°36'0 0.0
2014-Jul-18 23:30N 37°57' E 023°36'0 0.0
2014-Jul-18 22:30N 37°57' E 023°36'0 0.0
2014-Jul-18 21:30N 37°57' E 023°36'0 0.0
2014-Jul-18 20:29N 37°57' E 023°36'0 0.0
2014-Jul-18 19:29N 37°57' E 023°36'0 0.0
2014-Jul-18 18:28N 37°57' E 023°36'0 0.0
2014-Jul-18 17:28N 37°57' E 023°36'0 0.0
2014-Jul-18 16:33N 37°57' E 023°36'0 0.0
2014-Jul-18 15:33N 37°57' E 023°36'0 0.0
2014-Jul-18 14:33N 37°57' E 023°36'0 0.0
2014-Jul-18 13:32N 37°57' E 023°36'0 0.0
2014-Jul-18 12:32N 37°57' E 023°36'0 0.0
2014-Jul-18 11:31N 37°57' E 023°36'0 0.0
2014-Jul-18 10:31N 37°57' E 023°36'0 0.0
2014-Jul-18 09:30N 37°57' E 023°36'0 0.1
2014-Jul-18 05:04N 37°57' E 023°36'2 3.3
2014-Jul-18 04:33N 37°56' E 023°36'3 2.5
2014-Jul-18 03:33N 37°53' E 023°35'9 8.8
2014-Jul-18 02:33N 37°47' E 023°42'1713.0
2014-Jul-18 01:15N 37°30' E 023°44'1416.2
2014-Jul-18 00:25N 37°16' E 023°43'  
Track history (hours):
 
Tides and Currents Weather Stations Pressure Air Temp Water Temp Dewpoint Dewpoint Depression Visibility Wind Speed Wind Dir Waves Ship Positions

Mn Pelican

Last reported at 2014-Jul-22 23:26 UTC. Time now 2014-Jul-23 07:28 UTC.
Position N 39°37' E 025°42'.

Length 155 m.

Type: Ship. MMSI: 228315700.

Date/timePositionNaut miles runAvg speedWind from/ knotsBaromVisibWave heightAir tempDewpointWater temp
2014-Jul-22 23:26N 39°37' E 025°42'1415.8
2014-Jul-22 22:33N 39°50' E 025°48'3314.4
2014-Jul-22 20:13N 40°10' E 026°23'1312.5
2014-Jul-22 19:10N 40°19' E 026°36'  
2014-Jul-19 12:34N 37°39' E 023°42'1514.8
2014-Jul-19 11:34N 37°53' E 023°36'4 4.2
2014-Jul-19 10:29N 37°57' E 023°36'0 0.0
2014-Jul-19 09:29N 37°57' E 023°36'0 0.0
2014-Jul-19 08:28N 37°57' E 023°36'0 0.0
2014-Jul-19 07:28N 37°57' E 023°36'0 0.0
2014-Jul-19 06:33N 37°57' E 023°36'0 0.0
2014-Jul-19 05:33N 37°57' E 023°36'0 0.0
2014-Jul-19 04:33N 37°57' E 023°36'0 0.0
2014-Jul-19 03:32N 37°57' E 023°36'0 0.0
2014-Jul-19 02:32N 37°57' E 023°36'0 0.0
2014-Jul-19 01:31N 37°57' E 023°36'0 0.0
2014-Jul-19 00:31N 37°57' E 023°36'0 0.0
2014-Jul-18 23:30N 37°57' E 023°36'0 0.0
2014-Jul-18 22:30N 37°57' E 023°36'0 0.0
2014-Jul-18 21:30N 37°57' E 023°36'0 0.0
2014-Jul-18 20:29N 37°57' E 023°36'0 0.0
2014-Jul-18 19:29N 37°57' E 023°36'0 0.0
2014-Jul-18 18:28N 37°57' E 023°36'0 0.0
2014-Jul-18 17:28N 37°57' E 023°36'0 0.0
2014-Jul-18 16:33N 37°57' E 023°36'0 0.0
2014-Jul-18 15:33N 37°57' E 023°36'0 0.0
2014-Jul-18 14:33N 37°57' E 023°36'0 0.0
2014-Jul-18 13:32N 37°57' E 023°36'0 0.0
2014-Jul-18 12:32N 37°57' E 023°36'0 0.0
2014-Jul-18 11:31N 37°57' E 023°36'0 0.0
2014-Jul-18 10:31N 37°57' E 023°36'0 0.0
2014-Jul-18 09:30N 37°57' E 023°36'0 0.1
2014-Jul-18 05:04N 37°57' E 023°36'2 3.3
2014-Jul-18 04:33N 37°56' E 023°36'3 2.5
2014-Jul-18 03:33N 37°53' E 023°35'9 8.8
2014-Jul-18 02:33N 37°47' E 023°42'1713.0
2014-Jul-18 01:15N 37°30' E 023°44'1416.2
2014-Jul-18 00:25N 37°16' E 023°43'  

Dump ship's entire track history